sensor_id;sensor_type;location;lat;lon;timestamp;P1;durP1;ratioP1;P2;durP2;ratioP2
76636;SDS011;65532;52.124;5.480;2023-04-16T00:01:13;2.30;;;0.75;;
76636;SDS011;65532;52.124;5.480;2023-04-16T00:03:39;6.63;;;1.17;;
76636;SDS011;65532;52.124;5.480;2023-04-16T00:06:06;4.95;;;0.80;;
76636;SDS011;65532;52.124;5.480;2023-04-16T00:08:33;3.30;;;1.30;;
76636;SDS011;65532;52.124;5.480;2023-04-16T00:11:00;4.57;;;1.33;;
76636;SDS011;65532;52.124;5.480;2023-04-16T00:13:27;4.18;;;0.95;;
76636;SDS011;65532;52.124;5.480;2023-04-16T00:15:53;5.32;;;1.45;;
76636;SDS011;65532;52.124;5.480;2023-04-16T00:18:23;6.15;;;0.80;;
76636;SDS011;65532;52.124;5.480;2023-04-16T00:20:50;4.70;;;1.00;;
76636;SDS011;65532;52.124;5.480;2023-04-16T00:23:17;5.88;;;1.45;;
76636;SDS011;65532;52.124;5.480;2023-04-16T00:25:45;6.93;;;1.77;;
76636;SDS011;65532;52.124;5.480;2023-04-16T00:28:11;4.32;;;1.42;;
76636;SDS011;65532;52.124;5.480;2023-04-16T00:30:38;8.85;;;2.15;;
76636;SDS011;65532;52.124;5.480;2023-04-16T00:33:05;6.43;;;1.80;;
76636;SDS011;65532;52.124;5.480;2023-04-16T00:35:31;6.35;;;2.80;;
76636;SDS011;65532;52.124;5.480;2023-04-16T00:37:58;13.02;;;1.67;;
76636;SDS011;65532;52.124;5.480;2023-04-16T00:40:28;15.63;;;3.00;;
76636;SDS011;65532;52.124;5.480;2023-04-16T00:42:55;5.25;;;1.42;;
76636;SDS011;65532;52.124;5.480;2023-04-16T00:45:22;6.78;;;1.75;;
76636;SDS011;65532;52.124;5.480;2023-04-16T00:47:48;12.82;;;3.60;;
76636;SDS011;65532;52.124;5.480;2023-04-16T00:50:15;8.13;;;2.25;;
76636;SDS011;65532;52.124;5.480;2023-04-16T00:52:43;7.68;;;2.10;;
76636;SDS011;65532;52.124;5.480;2023-04-16T00:55:12;5.25;;;1.85;;
76636;SDS011;65532;52.124;5.480;2023-04-16T00:57:40;8.30;;;1.77;;
76636;SDS011;65532;52.124;5.480;2023-04-16T01:00:07;8.50;;;2.00;;
76636;SDS011;65532;52.124;5.480;2023-04-16T01:02:35;6.22;;;1.50;;
76636;SDS011;65532;52.124;5.480;2023-04-16T01:05:02;9.52;;;2.25;;
76636;SDS011;65532;52.124;5.480;2023-04-16T01:07:30;9.18;;;2.67;;
76636;SDS011;65532;52.124;5.480;2023-04-16T01:09:57;8.20;;;2.28;;
76636;SDS011;65532;52.124;5.480;2023-04-16T01:12:23;10.45;;;2.28;;
76636;SDS011;65532;52.124;5.480;2023-04-16T01:14:51;6.80;;;1.70;;
76636;SDS011;65532;52.124;5.480;2023-04-16T01:17:17;8.60;;;1.73;;
76636;SDS011;65532;52.124;5.480;2023-04-16T01:19:44;10.75;;;1.85;;
76636;SDS011;65532;52.124;5.480;2023-04-16T01:22:10;10.48;;;2.10;;
76636;SDS011;65532;52.124;5.480;2023-04-16T01:24:37;12.43;;;2.20;;
76636;SDS011;65532;52.124;5.480;2023-04-16T01:27:04;11.18;;;2.17;;
76636;SDS011;65532;52.124;5.480;2023-04-16T01:29:31;8.65;;;3.03;;
76636;SDS011;65532;52.124;5.480;2023-04-16T01:31:59;5.95;;;2.22;;
76636;SDS011;65532;52.124;5.480;2023-04-16T01:34:30;8.48;;;2.95;;
76636;SDS011;65532;52.124;5.480;2023-04-16T01:36:56;10.68;;;1.95;;
76636;SDS011;65532;52.124;5.480;2023-04-16T01:39:23;9.05;;;2.67;;
76636;SDS011;65532;52.124;5.480;2023-04-16T01:41:49;9.63;;;2.70;;
76636;SDS011;65532;52.124;5.480;2023-04-16T01:44:16;16.45;;;3.53;;
76636;SDS011;65532;52.124;5.480;2023-04-16T01:46:43;15.13;;;2.72;;
76636;SDS011;65532;52.124;5.480;2023-04-16T01:49:10;10.63;;;3.35;;
76636;SDS011;65532;52.124;5.480;2023-04-16T01:51:37;6.53;;;2.50;;
76636;SDS011;65532;52.124;5.480;2023-04-16T01:54:03;6.93;;;2.10;;
76636;SDS011;65532;52.124;5.480;2023-04-16T01:56:30;11.93;;;1.75;;
76636;SDS011;65532;52.124;5.480;2023-04-16T01:58:56;7.13;;;2.45;;
76636;SDS011;65532;52.124;5.480;2023-04-16T02:01:25;7.28;;;1.92;;
76636;SDS011;65532;52.124;5.480;2023-04-16T02:03:53;11.50;;;3.03;;
76636;SDS011;65532;52.124;5.480;2023-04-16T02:06:20;7.55;;;2.17;;
76636;SDS011;65532;52.124;5.480;2023-04-16T02:08:46;9.13;;;2.50;;
76636;SDS011;65532;52.124;5.480;2023-04-16T02:11:13;9.27;;;2.33;;
76636;SDS011;65532;52.124;5.480;2023-04-16T02:13:41;12.13;;;5.30;;
76636;SDS011;65532;52.124;5.480;2023-04-16T02:16:07;10.57;;;3.10;;
76636;SDS011;65532;52.124;5.480;2023-04-16T02:18:41;10.35;;;2.83;;
76636;SDS011;65532;52.124;5.480;2023-04-16T02:21:08;13.75;;;3.13;;
76636;SDS011;65532;52.124;5.480;2023-04-16T02:23:36;6.45;;;2.53;;
76636;SDS011;65532;52.124;5.480;2023-04-16T02:26:06;17.30;;;3.97;;
76636;SDS011;65532;52.124;5.480;2023-04-16T02:28:32;9.63;;;3.88;;
76636;SDS011;65532;52.124;5.480;2023-04-16T02:30:59;8.38;;;2.83;;
76636;SDS011;65532;52.124;5.480;2023-04-16T02:33:29;11.55;;;3.17;;
76636;SDS011;65532;52.124;5.480;2023-04-16T02:36:00;13.00;;;3.28;;
76636;SDS011;65532;52.124;5.480;2023-04-16T02:38:26;11.52;;;3.42;;
76636;SDS011;65532;52.124;5.480;2023-04-16T02:40:53;9.60;;;3.13;;
76636;SDS011;65532;52.124;5.480;2023-04-16T02:43:20;7.60;;;3.25;;
76636;SDS011;65532;52.124;5.480;2023-04-16T02:45:46;10.75;;;3.67;;
76636;SDS011;65532;52.124;5.480;2023-04-16T02:48:12;10.60;;;4.28;;
76636;SDS011;65532;52.124;5.480;2023-04-16T02:50:39;14.18;;;3.88;;
76636;SDS011;65532;52.124;5.480;2023-04-16T02:53:05;11.77;;;3.67;;
76636;SDS011;65532;52.124;5.480;2023-04-16T02:55:33;11.40;;;4.53;;
76636;SDS011;65532;52.124;5.480;2023-04-16T02:57:59;13.98;;;4.15;;
76636;SDS011;65532;52.124;5.480;2023-04-16T03:00:26;13.60;;;4.38;;
76636;SDS011;65532;52.124;5.480;2023-04-16T03:02:52;9.90;;;4.25;;
76636;SDS011;65532;52.124;5.480;2023-04-16T03:05:19;13.45;;;4.18;;
76636;SDS011;65532;52.124;5.480;2023-04-16T03:07:46;12.27;;;4.93;;
76636;SDS011;65532;52.124;5.480;2023-04-16T03:10:13;12.30;;;3.55;;
76636;SDS011;65532;52.124;5.480;2023-04-16T03:12:40;13.65;;;4.57;;
76636;SDS011;65532;52.124;5.480;2023-04-16T03:15:06;13.75;;;3.00;;
76636;SDS011;65532;52.124;5.480;2023-04-16T03:17:33;10.35;;;4.18;;
76636;SDS011;65532;52.124;5.480;2023-04-16T03:20:00;15.32;;;4.40;;
76636;SDS011;65532;52.124;5.480;2023-04-16T03:22:26;10.23;;;4.28;;
76636;SDS011;65532;52.124;5.480;2023-04-16T03:24:52;8.73;;;3.20;;
76636;SDS011;65532;52.124;5.480;2023-04-16T03:27:19;12.90;;;5.30;;
76636;SDS011;65532;52.124;5.480;2023-04-16T03:29:46;14.27;;;4.80;;
76636;SDS011;65532;52.124;5.480;2023-04-16T03:32:12;15.65;;;5.53;;
76636;SDS011;65532;52.124;5.480;2023-04-16T03:34:39;16.13;;;4.82;;
76636;SDS011;65532;52.124;5.480;2023-04-16T03:37:06;12.27;;;4.60;;
76636;SDS011;65532;52.124;5.480;2023-04-16T03:39:34;15.90;;;5.03;;
76636;SDS011;65532;52.124;5.480;2023-04-16T03:42:00;13.45;;;4.82;;
76636;SDS011;65532;52.124;5.480;2023-04-16T03:44:27;16.92;;;6.15;;
76636;SDS011;65532;52.124;5.480;2023-04-16T03:46:54;14.38;;;4.80;;
76636;SDS011;65532;52.124;5.480;2023-04-16T03:49:21;10.73;;;4.00;;
76636;SDS011;65532;52.124;5.480;2023-04-16T03:51:48;12.77;;;4.40;;
76636;SDS011;65532;52.124;5.480;2023-04-16T03:54:14;8.50;;;3.72;;
76636;SDS011;65532;52.124;5.480;2023-04-16T03:56:45;6.95;;;3.25;;
76636;SDS011;65532;52.124;5.480;2023-04-16T03:59:12;8.32;;;4.05;;
76636;SDS011;65532;52.124;5.480;2023-04-16T04:01:38;11.52;;;3.45;;
76636;SDS011;65532;52.124;5.480;2023-04-16T04:04:05;8.70;;;2.90;;
76636;SDS011;65532;52.124;5.480;2023-04-16T04:06:32;12.48;;;4.35;;
76636;SDS011;65532;52.124;5.480;2023-04-16T04:08:58;10.63;;;3.55;;
76636;SDS011;65532;52.124;5.480;2023-04-16T04:11:25;15.75;;;3.70;;
76636;SDS011;65532;52.124;5.480;2023-04-16T04:13:52;9.68;;;3.40;;
76636;SDS011;65532;52.124;5.480;2023-04-16T04:16:19;10.05;;;3.55;;
76636;SDS011;65532;52.124;5.480;2023-04-16T04:18:45;12.00;;;4.00;;
76636;SDS011;65532;52.124;5.480;2023-04-16T04:21:12;18.08;;;4.15;;
76636;SDS011;65532;52.124;5.480;2023-04-16T04:23:38;12.40;;;3.10;;
76636;SDS011;65532;52.124;5.480;2023-04-16T04:26:07;10.38;;;3.42;;
76636;SDS011;65532;52.124;5.480;2023-04-16T04:28:34;11.23;;;3.65;;
76636;SDS011;65532;52.124;5.480;2023-04-16T04:31:01;14.18;;;4.30;;
76636;SDS011;65532;52.124;5.480;2023-04-16T04:33:29;14.75;;;5.20;;
76636;SDS011;65532;52.124;5.480;2023-04-16T04:35:55;11.45;;;4.20;;
76636;SDS011;65532;52.124;5.480;2023-04-16T04:38:22;19.95;;;4.20;;
76636;SDS011;65532;52.124;5.480;2023-04-16T04:40:51;15.40;;;4.03;;
76636;SDS011;65532;52.124;5.480;2023-04-16T04:43:19;13.02;;;4.00;;
76636;SDS011;65532;52.124;5.480;2023-04-16T04:45:46;14.98;;;5.68;;
76636;SDS011;65532;52.124;5.480;2023-04-16T04:48:14;14.23;;;5.32;;
76636;SDS011;65532;52.124;5.480;2023-04-16T04:50:41;12.55;;;3.95;;
76636;SDS011;65532;52.124;5.480;2023-04-16T04:53:08;7.70;;;2.67;;
76636;SDS011;65532;52.124;5.480;2023-04-16T04:55:39;13.82;;;4.43;;
76636;SDS011;65532;52.124;5.480;2023-04-16T04:58:07;10.20;;;2.97;;
76636;SDS011;65532;52.124;5.480;2023-04-16T05:00:35;8.45;;;3.10;;
76636;SDS011;65532;52.124;5.480;2023-04-16T05:03:03;11.90;;;3.78;;
76636;SDS011;65532;52.124;5.480;2023-04-16T05:05:31;15.52;;;5.22;;
76636;SDS011;65532;52.124;5.480;2023-04-16T05:07:57;15.27;;;4.60;;
76636;SDS011;65532;52.124;5.480;2023-04-16T05:10:25;13.18;;;4.85;;
76636;SDS011;65532;52.124;5.480;2023-04-16T05:12:52;15.70;;;4.82;;
76636;SDS011;65532;52.124;5.480;2023-04-16T05:15:18;17.15;;;5.63;;
76636;SDS011;65532;52.124;5.480;2023-04-16T05:17:45;8.93;;;4.43;;
76636;SDS011;65532;52.124;5.480;2023-04-16T05:20:11;12.60;;;4.68;;
76636;SDS011;65532;52.124;5.480;2023-04-16T05:22:37;18.27;;;5.68;;
76636;SDS011;65532;52.124;5.480;2023-04-16T05:25:04;11.85;;;4.80;;
76636;SDS011;65532;52.124;5.480;2023-04-16T05:27:31;15.85;;;6.05;;
76636;SDS011;65532;52.124;5.480;2023-04-16T05:29:57;8.10;;;4.55;;
76636;SDS011;65532;52.124;5.480;2023-04-16T05:32:24;15.13;;;5.57;;
76636;SDS011;65532;52.124;5.480;2023-04-16T05:34:52;13.82;;;4.53;;
76636;SDS011;65532;52.124;5.480;2023-04-16T05:37:19;11.52;;;4.60;;
76636;SDS011;65532;52.124;5.480;2023-04-16T05:39:45;13.32;;;5.20;;
76636;SDS011;65532;52.124;5.480;2023-04-16T05:42:12;10.98;;;5.10;;
76636;SDS011;65532;52.124;5.480;2023-04-16T05:44:39;14.73;;;4.88;;
76636;SDS011;65532;52.124;5.480;2023-04-16T05:47:05;8.65;;;4.90;;
76636;SDS011;65532;52.124;5.480;2023-04-16T05:49:34;11.90;;;4.05;;
76636;SDS011;65532;52.124;5.480;2023-04-16T05:52:03;12.68;;;4.40;;
76636;SDS011;65532;52.124;5.480;2023-04-16T05:54:30;15.90;;;4.70;;
76636;SDS011;65532;52.124;5.480;2023-04-16T05:56:56;11.23;;;4.40;;
76636;SDS011;65532;52.124;5.480;2023-04-16T05:59:23;15.27;;;3.67;;
76636;SDS011;65532;52.124;5.480;2023-04-16T06:01:49;15.80;;;5.28;;
76636;SDS011;65532;52.124;5.480;2023-04-16T06:04:16;8.30;;;3.72;;
76636;SDS011;65532;52.124;5.480;2023-04-16T06:06:43;13.23;;;3.80;;
76636;SDS011;65532;52.124;5.480;2023-04-16T06:09:09;11.90;;;4.20;;
76636;SDS011;65532;52.124;5.480;2023-04-16T06:11:36;14.35;;;5.40;;
76636;SDS011;65532;52.124;5.480;2023-04-16T06:14:03;9.60;;;3.60;;
76636;SDS011;65532;52.124;5.480;2023-04-16T06:16:29;17.88;;;5.20;;
76636;SDS011;65532;52.124;5.480;2023-04-16T06:18:56;12.45;;;4.47;;
76636;SDS011;65532;52.124;5.480;2023-04-16T06:21:22;12.88;;;3.55;;
76636;SDS011;65532;52.124;5.480;2023-04-16T06:23:49;13.48;;;5.10;;
76636;SDS011;65532;52.124;5.480;2023-04-16T06:26:15;14.13;;;4.82;;
76636;SDS011;65532;52.124;5.480;2023-04-16T06:28:42;16.27;;;4.50;;
76636;SDS011;65532;52.124;5.480;2023-04-16T06:31:08;16.35;;;5.32;;
76636;SDS011;65532;52.124;5.480;2023-04-16T06:33:35;12.52;;;4.70;;
76636;SDS011;65532;52.124;5.480;2023-04-16T06:36:01;13.02;;;4.68;;
76636;SDS011;65532;52.124;5.480;2023-04-16T06:38:28;14.00;;;5.07;;
76636;SDS011;65532;52.124;5.480;2023-04-16T06:40:54;16.40;;;5.25;;
76636;SDS011;65532;52.124;5.480;2023-04-16T06:43:21;9.77;;;3.80;;
76636;SDS011;65532;52.124;5.480;2023-04-16T06:45:48;13.55;;;4.13;;
76636;SDS011;65532;52.124;5.480;2023-04-16T06:48:15;15.30;;;5.88;;
76636;SDS011;65532;52.124;5.480;2023-04-16T06:50:41;13.57;;;4.68;;
76636;SDS011;65532;52.124;5.480;2023-04-16T06:53:08;17.55;;;5.20;;
76636;SDS011;65532;52.124;5.480;2023-04-16T06:55:34;16.60;;;5.65;;
76636;SDS011;65532;52.124;5.480;2023-04-16T06:58:01;13.70;;;5.63;;
76636;SDS011;65532;52.124;5.480;2023-04-16T07:00:27;18.45;;;5.38;;
76636;SDS011;65532;52.124;5.480;2023-04-16T07:02:54;15.70;;;7.50;;
76636;SDS011;65532;52.124;5.480;2023-04-16T07:05:23;18.73;;;6.55;;
76636;SDS011;65532;52.124;5.480;2023-04-16T07:07:50;16.55;;;4.90;;
76636;SDS011;65532;52.124;5.480;2023-04-16T07:10:16;17.85;;;5.47;;
76636;SDS011;65532;52.124;5.480;2023-04-16T07:12:43;16.05;;;5.22;;
76636;SDS011;65532;52.124;5.480;2023-04-16T07:15:13;17.80;;;6.68;;
76636;SDS011;65532;52.124;5.480;2023-04-16T07:17:39;15.45;;;5.68;;
76636;SDS011;65532;52.124;5.480;2023-04-16T07:20:06;19.50;;;7.43;;
76636;SDS011;65532;52.124;5.480;2023-04-16T07:22:33;15.85;;;6.35;;
76636;SDS011;65532;52.124;5.480;2023-04-16T07:24:59;12.80;;;6.28;;
76636;SDS011;65532;52.124;5.480;2023-04-16T07:27:26;15.60;;;5.82;;
76636;SDS011;65532;52.124;5.480;2023-04-16T07:29:52;15.80;;;6.63;;
76636;SDS011;65532;52.124;5.480;2023-04-16T07:32:20;17.10;;;6.93;;
76636;SDS011;65532;52.124;5.480;2023-04-16T07:34:47;12.95;;;5.63;;
76636;SDS011;65532;52.124;5.480;2023-04-16T07:37:14;16.63;;;6.63;;
76636;SDS011;65532;52.124;5.480;2023-04-16T07:39:40;14.55;;;6.40;;
76636;SDS011;65532;52.124;5.480;2023-04-16T07:42:07;14.23;;;5.65;;
76636;SDS011;65532;52.124;5.480;2023-04-16T07:44:33;17.05;;;7.00;;
76636;SDS011;65532;52.124;5.480;2023-04-16T07:47:00;11.30;;;4.90;;
76636;SDS011;65532;52.124;5.480;2023-04-16T07:49:29;17.80;;;7.03;;
76636;SDS011;65532;52.124;5.480;2023-04-16T07:51:56;15.00;;;5.50;;
76636;SDS011;65532;52.124;5.480;2023-04-16T07:54:23;14.68;;;6.15;;
76636;SDS011;65532;52.124;5.480;2023-04-16T07:56:49;17.30;;;5.55;;
76636;SDS011;65532;52.124;5.480;2023-04-16T07:59:16;13.57;;;5.45;;
76636;SDS011;65532;52.124;5.480;2023-04-16T08:01:49;21.45;;;5.70;;
76636;SDS011;65532;52.124;5.480;2023-04-16T08:04:15;14.90;;;5.80;;
76636;SDS011;65532;52.124;5.480;2023-04-16T08:06:48;14.40;;;5.35;;
76636;SDS011;65532;52.124;5.480;2023-04-16T08:09:17;14.13;;;6.35;;
76636;SDS011;65532;52.124;5.480;2023-04-16T08:11:44;13.38;;;4.70;;
76636;SDS011;65532;52.124;5.480;2023-04-16T08:14:11;12.52;;;5.47;;
76636;SDS011;65532;52.124;5.480;2023-04-16T08:16:37;13.43;;;4.75;;
76636;SDS011;65532;52.124;5.480;2023-04-16T08:19:05;18.45;;;6.05;;
76636;SDS011;65532;52.124;5.480;2023-04-16T08:21:32;15.43;;;6.00;;
76636;SDS011;65532;52.124;5.480;2023-04-16T08:23:58;17.15;;;6.15;;
76636;SDS011;65532;52.124;5.480;2023-04-16T08:26:25;12.57;;;5.50;;
76636;SDS011;65532;52.124;5.480;2023-04-16T08:28:52;18.83;;;4.32;;
76636;SDS011;65532;52.124;5.480;2023-04-16T08:31:18;15.18;;;6.00;;
76636;SDS011;65532;52.124;5.480;2023-04-16T08:33:45;8.60;;;3.58;;
76636;SDS011;65532;52.124;5.480;2023-04-16T08:36:11;7.90;;;3.22;;
76636;SDS011;65532;52.124;5.480;2023-04-16T08:38:38;9.68;;;3.58;;
76636;SDS011;65532;52.124;5.480;2023-04-16T08:41:05;8.55;;;3.00;;
76636;SDS011;65532;52.124;5.480;2023-04-16T08:43:35;7.97;;;3.38;;
76636;SDS011;65532;52.124;5.480;2023-04-16T08:46:04;10.50;;;3.65;;
76636;SDS011;65532;52.124;5.480;2023-04-16T08:48:31;11.48;;;4.57;;
76636;SDS011;65532;52.124;5.480;2023-04-16T08:50:59;9.15;;;3.70;;
76636;SDS011;65532;52.124;5.480;2023-04-16T08:53:47;12.57;;;4.72;;
76636;SDS011;65532;52.124;5.480;2023-04-16T08:56:18;5.68;;;1.95;;
76636;SDS011;65532;52.124;5.480;2023-04-16T08:58:46;10.05;;;3.83;;
76636;SDS011;65532;52.124;5.480;2023-04-16T09:01:15;10.38;;;3.95;;
76636;SDS011;65532;52.124;5.480;2023-04-16T09:03:43;8.48;;;3.80;;
76636;SDS011;65532;52.124;5.480;2023-04-16T09:06:13;9.15;;;3.35;;
76636;SDS011;65532;52.124;5.480;2023-04-16T09:08:44;8.38;;;3.97;;
76636;SDS011;65532;52.124;5.480;2023-04-16T09:11:16;8.43;;;4.22;;
76636;SDS011;65532;52.124;5.480;2023-04-16T09:13:43;13.68;;;5.85;;
76636;SDS011;65532;52.124;5.480;2023-04-16T09:16:11;6.82;;;2.88;;
76636;SDS011;65532;52.124;5.480;2023-04-16T09:18:39;9.68;;;4.40;;
76636;SDS011;65532;52.124;5.480;2023-04-16T09:21:06;8.57;;;3.40;;
76636;SDS011;65532;52.124;5.480;2023-04-16T09:23:35;8.13;;;2.45;;
76636;SDS011;65532;52.124;5.480;2023-04-16T09:26:03;8.35;;;4.22;;
76636;SDS011;65532;52.124;5.480;2023-04-16T09:28:37;10.02;;;3.78;;
76636;SDS011;65532;52.124;5.480;2023-04-16T09:33:38;12.00;;;3.95;;
76636;SDS011;65532;52.124;5.480;2023-04-16T09:36:05;9.95;;;4.18;;
76636;SDS011;65532;52.124;5.480;2023-04-16T09:38:45;7.93;;;2.60;;
76636;SDS011;65532;52.124;5.480;2023-04-16T09:41:13;6.95;;;3.42;;
76636;SDS011;65532;52.124;5.480;2023-04-16T09:43:54;9.23;;;4.85;;
76636;SDS011;65532;52.124;5.480;2023-04-16T09:46:29;8.60;;;3.80;;
76636;SDS011;65532;52.124;5.480;2023-04-16T09:48:57;8.70;;;3.45;;
76636;SDS011;65532;52.124;5.480;2023-04-16T09:51:23;9.57;;;2.63;;
76636;SDS011;65532;52.124;5.480;2023-04-16T09:53:51;7.53;;;3.30;;
76636;SDS011;65532;52.124;5.480;2023-04-16T09:56:24;10.40;;;2.63;;
76636;SDS011;65532;52.124;5.480;2023-04-16T09:58:55;10.70;;;3.85;;
76636;SDS011;65532;52.124;5.480;2023-04-16T10:01:23;13.23;;;3.97;;
76636;SDS011;65532;52.124;5.480;2023-04-16T10:03:52;9.15;;;3.75;;
76636;SDS011;65532;52.124;5.480;2023-04-16T10:06:20;10.18;;;3.95;;
76636;SDS011;65532;52.124;5.480;2023-04-16T10:08:48;10.27;;;3.97;;
76636;SDS011;65532;52.124;5.480;2023-04-16T10:11:16;11.43;;;4.10;;
76636;SDS011;65532;52.124;5.480;2023-04-16T10:13:44;10.18;;;4.43;;
76636;SDS011;65532;52.124;5.480;2023-04-16T10:16:11;11.45;;;3.72;;
76636;SDS011;65532;52.124;5.480;2023-04-16T10:18:39;11.02;;;4.70;;
76636;SDS011;65532;52.124;5.480;2023-04-16T10:21:07;12.32;;;4.05;;
76636;SDS011;65532;52.124;5.480;2023-04-16T10:23:39;12.43;;;4.22;;
76636;SDS011;65532;52.124;5.480;2023-04-16T10:26:07;9.90;;;4.18;;
76636;SDS011;65532;52.124;5.480;2023-04-16T10:28:34;13.00;;;5.63;;
76636;SDS011;65532;52.124;5.480;2023-04-16T10:31:01;10.00;;;4.55;;
76636;SDS011;65532;52.124;5.480;2023-04-16T10:33:30;17.30;;;6.00;;
76636;SDS011;65532;52.124;5.480;2023-04-16T10:36:11;11.25;;;5.07;;
76636;SDS011;65532;52.124;5.480;2023-04-16T10:38:48;13.20;;;5.78;;
76636;SDS011;65532;52.124;5.480;2023-04-16T10:41:16;10.85;;;4.03;;
76636;SDS011;65532;52.124;5.480;2023-04-16T10:43:43;15.93;;;4.90;;
76636;SDS011;65532;52.124;5.480;2023-04-16T10:46:17;14.02;;;6.50;;
76636;SDS011;65532;52.124;5.480;2023-04-16T10:48:51;14.23;;;7.07;;
76636;SDS011;65532;52.124;5.480;2023-04-16T10:51:23;15.50;;;5.57;;
76636;SDS011;65532;52.124;5.480;2023-04-16T10:53:52;12.27;;;6.13;;
76636;SDS011;65532;52.124;5.480;2023-04-16T10:56:25;17.10;;;4.75;;
76636;SDS011;65532;52.124;5.480;2023-04-16T10:58:53;14.85;;;5.55;;
76636;SDS011;65532;52.124;5.480;2023-04-16T11:04:00;11.00;;;4.25;;
76636;SDS011;65532;52.124;5.480;2023-04-16T11:09:45;10.35;;;3.78;;
76636;SDS011;65532;52.124;5.480;2023-04-16T11:12:16;15.98;;;5.28;;
76636;SDS011;65532;52.124;5.480;2023-04-16T11:14:53;9.60;;;3.90;;
76636;SDS011;65532;52.124;5.480;2023-04-16T11:17:26;10.82;;;4.30;;
76636;SDS011;65532;52.124;5.480;2023-04-16T11:19:57;11.20;;;4.47;;
76636;SDS011;65532;52.124;5.480;2023-04-16T11:22:24;12.23;;;4.28;;
76636;SDS011;65532;52.124;5.480;2023-04-16T11:24:54;11.07;;;5.22;;
76636;SDS011;65532;52.124;5.480;2023-04-16T11:27:22;10.82;;;4.30;;
76636;SDS011;65532;52.124;5.480;2023-04-16T11:29:59;8.32;;;4.55;;
76636;SDS011;65532;52.124;5.480;2023-04-16T11:32:29;13.07;;;3.75;;
76636;SDS011;65532;52.124;5.480;2023-04-16T11:35:04;11.80;;;4.45;;
76636;SDS011;65532;52.124;5.480;2023-04-16T11:37:38;12.05;;;4.30;;
76636;SDS011;65532;52.124;5.480;2023-04-16T11:40:05;12.50;;;4.85;;
76636;SDS011;65532;52.124;5.480;2023-04-16T11:42:33;11.75;;;5.07;;
76636;SDS011;65532;52.124;5.480;2023-04-16T11:45:02;11.82;;;5.78;;
76636;SDS011;65532;52.124;5.480;2023-04-16T11:47:30;12.40;;;5.60;;
76636;SDS011;65532;52.124;5.480;2023-04-16T11:50:13;13.68;;;4.40;;
76636;SDS011;65532;52.124;5.480;2023-04-16T11:52:41;13.27;;;4.75;;
76636;SDS011;65532;52.124;5.480;2023-04-16T11:55:08;14.95;;;5.53;;
76636;SDS011;65532;52.124;5.480;2023-04-16T11:57:34;14.02;;;6.72;;
76636;SDS011;65532;52.124;5.480;2023-04-16T12:00:01;10.35;;;5.15;;
76636;SDS011;65532;52.124;5.480;2023-04-16T12:02:40;14.48;;;5.32;;
76636;SDS011;65532;52.124;5.480;2023-04-16T12:07:54;15.77;;;6.43;;
76636;SDS011;65532;52.124;5.480;2023-04-16T12:10:21;19.17;;;6.30;;
76636;SDS011;65532;52.124;5.480;2023-04-16T12:12:47;19.10;;;6.05;;
76636;SDS011;65532;52.124;5.480;2023-04-16T12:15:14;12.65;;;6.55;;
76636;SDS011;65532;52.124;5.480;2023-04-16T12:17:40;14.32;;;8.02;;
76636;SDS011;65532;52.124;5.480;2023-04-16T12:20:08;16.45;;;7.32;;
76636;SDS011;65532;52.124;5.480;2023-04-16T12:22:37;13.10;;;5.75;;
76636;SDS011;65532;52.124;5.480;2023-04-16T12:25:14;16.65;;;6.63;;
76636;SDS011;65532;52.124;5.480;2023-04-16T12:27:46;13.05;;;6.35;;
76636;SDS011;65532;52.124;5.480;2023-04-16T12:30:18;16.67;;;6.25;;
76636;SDS011;65532;52.124;5.480;2023-04-16T12:32:48;13.75;;;6.82;;
76636;SDS011;65532;52.124;5.480;2023-04-16T12:35:52;13.00;;;5.75;;
76636;SDS011;65532;52.124;5.480;2023-04-16T12:38:18;15.35;;;6.75;;
76636;SDS011;65532;52.124;5.480;2023-04-16T12:40:49;14.70;;;6.38;;
76636;SDS011;65532;52.124;5.480;2023-04-16T12:43:16;16.13;;;7.47;;
76636;SDS011;65532;52.124;5.480;2023-04-16T12:45:42;16.48;;;9.25;;
76636;SDS011;65532;52.124;5.480;2023-04-16T12:48:09;17.20;;;7.65;;
76636;SDS011;65532;52.124;5.480;2023-04-16T12:50:36;14.43;;;5.90;;
76636;SDS011;65532;52.124;5.480;2023-04-16T12:53:04;16.02;;;7.50;;
76636;SDS011;65532;52.124;5.480;2023-04-16T12:55:31;14.38;;;6.90;;
76636;SDS011;65532;52.124;5.480;2023-04-16T12:57:57;16.27;;;6.45;;
76636;SDS011;65532;52.124;5.480;2023-04-16T13:00:23;15.30;;;5.45;;
76636;SDS011;65532;52.124;5.480;2023-04-16T13:02:50;17.50;;;6.47;;
76636;SDS011;65532;52.124;5.480;2023-04-16T13:05:17;12.30;;;5.32;;
76636;SDS011;65532;52.124;5.480;2023-04-16T13:07:44;14.70;;;7.68;;
76636;SDS011;65532;52.124;5.480;2023-04-16T13:10:11;17.58;;;8.35;;
76636;SDS011;65532;52.124;5.480;2023-04-16T13:12:38;14.30;;;5.05;;
76636;SDS011;65532;52.124;5.480;2023-04-16T13:15:04;16.85;;;6.15;;
76636;SDS011;65532;52.124;5.480;2023-04-16T13:17:31;13.45;;;5.50;;
76636;SDS011;65532;52.124;5.480;2023-04-16T13:19:58;14.55;;;6.03;;
76636;SDS011;65532;52.124;5.480;2023-04-16T13:22:24;13.52;;;5.32;;
76636;SDS011;65532;52.124;5.480;2023-04-16T13:24:51;18.67;;;5.68;;
76636;SDS011;65532;52.124;5.480;2023-04-16T13:27:17;15.25;;;5.15;;
76636;SDS011;65532;52.124;5.480;2023-04-16T13:29:44;11.88;;;5.05;;
76636;SDS011;65532;52.124;5.480;2023-04-16T13:32:11;17.73;;;7.78;;
76636;SDS011;65532;52.124;5.480;2023-04-16T13:34:39;12.77;;;6.35;;
76636;SDS011;65532;52.124;5.480;2023-04-16T13:37:05;13.82;;;6.13;;
76636;SDS011;65532;52.124;5.480;2023-04-16T13:39:32;17.08;;;8.00;;
76636;SDS011;65532;52.124;5.480;2023-04-16T13:41:58;17.83;;;7.32;;
76636;SDS011;65532;52.124;5.480;2023-04-16T13:44:25;18.42;;;7.38;;
76636;SDS011;65532;52.124;5.480;2023-04-16T13:46:51;14.80;;;7.03;;
76636;SDS011;65532;52.124;5.480;2023-04-16T13:49:18;16.15;;;7.95;;
76636;SDS011;65532;52.124;5.480;2023-04-16T13:51:44;12.35;;;7.47;;
76636;SDS011;65532;52.124;5.480;2023-04-16T13:54:11;13.73;;;5.30;;
76636;SDS011;65532;52.124;5.480;2023-04-16T13:56:38;12.02;;;4.85;;
76636;SDS011;65532;52.124;5.480;2023-04-16T13:59:05;12.95;;;4.45;;
76636;SDS011;65532;52.124;5.480;2023-04-16T14:01:31;12.52;;;5.30;;
76636;SDS011;65532;52.124;5.480;2023-04-16T14:03:59;13.10;;;4.90;;
76636;SDS011;65532;52.124;5.480;2023-04-16T14:06:31;11.65;;;5.32;;
76636;SDS011;65532;52.124;5.480;2023-04-16T14:08:58;10.48;;;4.55;;
76636;SDS011;65532;52.124;5.480;2023-04-16T14:11:24;14.95;;;7.05;;
76636;SDS011;65532;52.124;5.480;2023-04-16T14:13:51;16.63;;;4.35;;
76636;SDS011;65532;52.124;5.480;2023-04-16T14:16:17;9.82;;;4.40;;
76636;SDS011;65532;52.124;5.480;2023-04-16T14:18:44;11.75;;;5.78;;
76636;SDS011;65532;52.124;5.480;2023-04-16T14:21:11;13.05;;;6.43;;
76636;SDS011;65532;52.124;5.480;2023-04-16T14:23:38;10.57;;;5.00;;
76636;SDS011;65532;52.124;5.480;2023-04-16T14:26:04;14.68;;;4.28;;
76636;SDS011;65532;52.124;5.480;2023-04-16T14:28:31;7.93;;;3.97;;
76636;SDS011;65532;52.124;5.480;2023-04-16T14:30:57;11.07;;;5.18;;
76636;SDS011;65532;52.124;5.480;2023-04-16T14:33:24;14.32;;;4.95;;
76636;SDS011;65532;52.124;5.480;2023-04-16T14:35:50;11.10;;;5.30;;
76636;SDS011;65532;52.124;5.480;2023-04-16T14:38:17;13.77;;;5.18;;
76636;SDS011;65532;52.124;5.480;2023-04-16T14:40:43;13.13;;;4.97;;
76636;SDS011;65532;52.124;5.480;2023-04-16T14:43:10;14.30;;;5.57;;
76636;SDS011;65532;52.124;5.480;2023-04-16T14:45:36;13.23;;;5.35;;
76636;SDS011;65532;52.124;5.480;2023-04-16T14:48:03;8.40;;;4.32;;
76636;SDS011;65532;52.124;5.480;2023-04-16T14:50:30;11.50;;;5.50;;
76636;SDS011;65532;52.124;5.480;2023-04-16T14:52:58;8.40;;;4.93;;